Carle Place, New York
Current Conditions -  °F | °C
As of 10:53 AM on Thursday 23 Oct 2014 (Local Time) from KFRG Reporting Station
Overcast Overcast  
Wind Chill: 53°   Ceiling: 2200
Heat Index: 53°   Visibility: 10mi
Dew Point: 48°   Wind: 14mph
Humidity: 83%   Direction: 350°N
Pressure: 29.67"   Gusts: 20mph
Location:  40.75°N, 73.62°W
Report Text: KFRG 231453Z 35012G17KT 10SM OVC022 12/09 A2967 RMK AO2 SLP046 60006 T01170089 53001
Loading
Personal Weather Stations






























Interactive Weather Map
Tropical Storm Tracking
New forecast layout! Learn more

10-Day Weather Forecast

Advertisements
Track Severe Weather on mobile